North Perry, Ohio
Current Conditions -  °F | °C
As of 6:45 AM on Monday 22 Dec 2014 (Local Time) from KCGF Reporting Station
Few Clouds Few Clouds  
Wind Chill: 22°   Ceiling: Unl
Heat Index: 28°   Visibility: 10mi
Dew Point: 23°   Wind: 6mph
Humidity: 80%   Direction: 120°ESE
Pressure: 30.11"   Gusts: NA
Location:  41.7672°N, 81.1422°W
Report Text: KCGF 221145Z 12005KT 10SM FEW050 M02/M05 A3011
Loading
Personal Weather Stations






























Interactive Weather Map New forecast layout! Learn more

10-Day Weather Forecast

Advertisements
Track Severe Weather on mobile